Time;durP1;ratioP1;P1;durP2;ratioP2;P2;SDS_P1;SDS_P2;PMS_P1;PMS_P2;Temp;Humidity;BMP_temperature;BMP_pressure;BME280_temperature;BME280_humidity;BME280_pressure;Samples;Min_cycle;Max_cycle;Signal;HPM_P1;HPM_P2
2023/08/17 00:01:57;;;;;;;15.50;13.48;;;;;;;17.75;99.17;99077.06;5011218;28;20040;-87
2023/08/17 00:04:22;;;;;;;22.38;13.00;;;;;;;17.79;99.78;99082.66;5040562;28;20370;-86
2023/08/17 00:06:48;;;;;;;17.23;11.63;;;;;;;18.21;97.59;99079.13;5012097;28;20049;-86
2023/08/17 00:09:13;;;;;;;21.23;12.90;;;;;;;18.06;97.56;99063.13;5011068;28;20030;-86
2023/08/17 00:11:39;;;;;;;14.75;10.85;;;;;;;18.42;96.29;99069.63;5025606;28;20025;-86
2023/08/17 00:14:05;;;;;;;16.20;11.68;;;;;;;18.25;96.86;99075.56;5025583;28;20033;-87
2023/08/17 00:16:31;;;;;;;16.00;12.63;;;;;;;18.28;96.45;99072.25;5012190;28;20045;-86
2023/08/17 00:18:57;;;;;;;15.43;11.75;;;;;;;18.42;95.71;99067.72;5024130;28;20423;-87
2023/08/17 00:21:22;;;;;;;14.55;11.02;;;;;;;19.16;91.69;99069.47;5009585;28;20041;-87
2023/08/17 00:23:47;;;;;;;16.27;10.88;;;;;;;18.97;91.90;99071.44;5010429;28;20040;-87
2023/08/17 00:26:14;;;;;;;18.55;12.18;;;;;;;18.84;93.11;99064.09;5022904;28;20033;-87
2023/08/17 00:28:39;;;;;;;17.20;11.95;;;;;;;18.58;95.12;99062.91;5007494;28;20088;-87
2023/08/17 00:31:05;;;;;;;15.68;12.38;;;;;;;18.30;96.69;99061.97;5026059;28;20033;-87
2023/08/17 00:33:30;;;;;;;14.15;11.27;;;;;;;18.21;97.17;99042.13;5026008;28;20034;-87
2023/08/17 00:35:56;;;;;;;16.10;12.60;;;;;;;18.27;96.95;99030.13;5006824;28;20440;-87
2023/08/17 00:38:21;;;;;;;20.40;13.07;;;;;;;18.50;96.84;99060.91;5014820;28;20029;-87
2023/08/17 00:40:47;;;;;;;21.83;13.30;;;;;;;18.38;97.14;99053.19;5015023;28;20037;-87
2023/08/17 00:43:12;;;;;;;18.70;13.65;;;;;;;18.22;98.11;99041.00;5035136;28;20489;-87
2023/08/17 00:45:37;;;;;;;21.42;14.98;;;;;;;17.90;99.88;99036.34;5024184;28;20033;-87
2023/08/17 00:48:07;;;;;;;21.10;13.57;;;;;;;18.09;100.00;99040.94;5029016;28;20076;-86
2023/08/17 00:50:34;;;;;;;12.73;9.90;;;;;;;18.03;99.29;99009.69;5032024;28;20064;-86
2023/08/17 00:52:59;;;;;;;10.55;9.05;;;;;;;18.70;96.11;99038.91;5031565;28;20041;-86
2023/08/17 00:55:25;;;;;;;12.18;8.43;;;;;;;18.82;94.47;99025.72;5013611;28;20040;-86
2023/08/17 00:57:52;;;;;;;9.65;6.90;;;;;;;18.85;93.39;99019.72;5033881;28;20029;-87
2023/08/17 01:00:18;;;;;;;11.13;7.18;;;;;;;18.78;93.64;99005.78;5030893;28;20033;-87
2023/08/17 01:02:44;;;;;;;7.45;4.55;;;;;;;18.62;94.81;99017.97;4997938;28;20033;-87
2023/08/17 01:05:09;;;;;;;7.50;4.20;;;;;;;18.49;96.19;99007.91;5016889;28;20029;-87
2023/08/17 01:07:35;;;;;;;5.18;3.72;;;;;;;18.56;96.27;99016.44;5034921;28;20032;-87
2023/08/17 01:10:01;;;;;;;4.95;4.43;;;;;;;18.41;96.59;99003.94;5018596;28;20081;-87
2023/08/17 01:12:27;;;;;;;5.95;5.35;;;;;;;18.65;95.56;99009.28;5035636;28;20034;-87
2023/08/17 01:14:56;;;;;;;8.88;4.00;;;;;;;18.66;95.18;99010.84;5032001;28;20028;-87
2023/08/17 01:17:29;;;;;;;9.52;5.05;;;;;;;18.58;95.97;99009.66;5032297;28;20061;-87
2023/08/17 01:19:57;;;;;;;6.53;4.45;;;;;;;18.64;96.21;99005.75;5031749;28;20056;-87
2023/08/17 01:22:26;;;;;;;7.35;4.32;;;;;;;18.81;94.07;99002.47;5032022;28;20061;-87
2023/08/17 01:24:57;;;;;;;8.63;4.63;;;;;;;18.66;95.38;98991.94;5034449;28;20156;-87
2023/08/17 01:27:23;;;;;;;6.75;5.10;;;;;;;18.97;94.36;98994.88;5017276;28;20033;-87
2023/08/17 01:29:49;;;;;;;5.70;4.68;;;;;;;19.17;91.65;98995.31;5030582;28;20033;-87
2023/08/17 01:32:39;;;;;;;6.85;4.55;;;;;;;19.28;91.29;98988.59;5028346;28;20034;-87
2023/08/17 01:35:14;;;;;;;5.57;3.42;;;;;;;19.10;92.26;98996.81;5029939;28;20028;-87
2023/08/17 01:37:42;;;;;;;6.10;3.03;;;;;;;18.90;93.62;98987.16;5026498;28;20029;-87
2023/08/17 01:40:09;;;;;;;5.20;3.10;;;;;;;18.88;93.04;98988.56;5014769;28;20033;-87
2023/08/17 01:42:36;;;;;;;4.07;3.72;;;;;;;19.04;92.55;98981.78;5026302;28;20883;-87
2023/08/17 01:45:02;;;;;;;4.75;3.63;;;;;;;19.21;91.85;98982.78;5026333;28;20033;-87
2023/08/17 01:47:27;;;;;;;8.40;4.07;;;;;;;19.25;89.86;98959.41;5014912;28;20037;-87
2023/08/17 01:49:52;;;;;;;5.47;3.60;;;;;;;19.78;87.14;98973.22;5029613;28;20061;-87
2023/08/17 01:52:18;;;;;;;4.43;3.70;;;;;;;20.02;86.17;98987.28;4999315;28;20115;-88
2023/08/17 01:54:43;;;;;;;6.25;3.13;;;;;;;19.92;86.72;98987.50;5030486;28;20032;-88
2023/08/17 01:57:08;;;;;;;3.85;3.10;;;;;;;19.76;86.90;98970.00;5018726;28;20029;-88
2023/08/17 01:59:34;;;;;;;8.30;3.13;;;;;;;19.81;86.82;98982.63;5029532;28;20017;-87
2023/08/17 02:01:59;;;;;;;5.28;2.95;;;;;;;19.92;86.10;98995.63;5012360;28;20493;-88
2023/08/17 02:04:25;;;;;;;3.13;2.50;;;;;;;20.00;85.62;98985.97;5030940;28;20107;-88
2023/08/17 02:06:50;;;;;;;4.82;3.28;;;;;;;19.80;87.10;98999.97;5013911;28;20362;-87
2023/08/17 02:09:16;;;;;;;5.07;3.10;;;;;;;19.74;86.82;98972.22;5030219;28;20489;-88
2023/08/17 02:11:41;;;;;;;4.55;3.10;;;;;;;19.90;85.16;98978.06;5012915;28;20025;-87
2023/08/17 02:14:06;;;;;;;2.85;2.65;;;;;;;19.85;85.72;98967.38;5013673;28;20448;-88
2023/08/17 02:16:32;;;;;;;2.90;2.10;;;;;;;20.11;84.52;98992.78;4993869;28;20029;-88
2023/08/17 02:18:57;;;;;;;4.20;2.53;;;;;;;19.62;86.46;98973.81;5013779;28;20037;-87
2023/08/17 02:21:22;;;;;;;2.47;2.28;;;;;;;19.80;86.19;98972.88;5013894;28;20056;-87
2023/08/17 02:23:49;;;;;;;4.10;2.80;;;;;;;20.03;85.29;98993.47;4994462;28;20048;-88
2023/08/17 02:26:14;;;;;;;4.03;2.38;;;;;;;19.79;85.84;98968.59;5009218;28;20095;-87
2023/08/17 02:28:39;;;;;;;4.22;2.50;;;;;;;19.82;86.18;98992.34;5012536;28;20576;-88
2023/08/17 02:31:06;;;;;;;2.50;2.20;;;;;;;19.94;86.03;98989.91;5029602;28;20501;-88
2023/08/17 02:33:33;;;;;;;4.13;2.28;;;;;;;19.99;84.99;98970.81;4996771;28;20040;-87
2023/08/17 02:35:59;;;;;;;2.90;1.95;;;;;;;20.13;85.12;99006.81;5029424;28;20029;-87
2023/08/17 02:38:24;;;;;;;4.35;2.33;;;;;;;20.03;85.30;98996.19;5029405;28;20040;-87
2023/08/17 02:40:50;;;;;;;1.95;1.85;;;;;;;19.59;86.58;98966.31;5012614;28;20381;-87
2023/08/17 02:43:15;;;;;;;2.30;1.85;;;;;;;19.81;86.72;98991.53;5024234;28;20033;-88
2023/08/17 02:45:41;;;;;;;3.75;2.30;;;;;;;19.98;85.75;98989.00;5028661;28;20022;-87
2023/08/17 02:48:08;;;;;;;10.05;2.47;;;;;;;19.43;88.42;98988.31;5018422;28;20025;-87
2023/08/17 02:50:34;;;;;;;3.75;2.28;;;;;;;18.87;90.60;98944.47;5023640;28;20033;-87
2023/08/17 02:52:59;;;;;;;2.83;2.03;;;;;;;19.09;90.69;98987.09;5013849;28;20029;-87
2023/08/17 02:55:25;;;;;;;2.63;2.42;;;;;;;18.98;91.71;98982.97;5008875;28;20488;-88
2023/08/17 02:57:50;;;;;;;3.90;2.30;;;;;;;18.78;92.95;98981.47;5017209;28;20030;-88
2023/08/17 03:00:16;;;;;;;4.65;2.60;;;;;;;18.60;93.47;98983.13;4996359;28;20375;-88
2023/08/17 03:02:41;;;;;;;2.97;2.20;;;;;;;18.98;91.97;98982.97;5014474;28;20025;-88
2023/08/17 03:05:07;;;;;;;2.83;1.83;;;;;;;18.82;92.07;98971.63;5011403;28;20123;-88
2023/08/17 03:07:32;;;;;;;2.55;2.03;;;;;;;19.64;87.99;98998.69;5010753;28;20032;-88
2023/08/17 03:09:57;;;;;;;4.13;2.15;;;;;;;19.42;87.97;98978.56;5029829;28;20044;-88
2023/08/17 03:12:23;;;;;;;3.13;2.78;;;;;;;19.02;89.80;98965.03;5012772;28;20432;-88
2023/08/17 03:14:48;;;;;;;5.00;3.05;;;;;;;18.74;93.33;98985.06;5028111;28;20030;-88
2023/08/17 03:17:13;;;;;;;5.05;2.97;;;;;;;18.42;95.65;98989.34;5033311;28;20056;-87
2023/08/17 03:19:39;;;;;;;3.25;2.13;;;;;;;18.57;95.14;98980.19;5012882;28;20065;-87
2023/08/17 03:22:04;;;;;;;8.80;3.83;;;;;;;18.97;91.11;98978.66;4997104;28;20026;-88
2023/08/17 03:24:29;;;;;;;3.28;2.90;;;;;;;18.72;93.92;98971.03;5026619;28;20556;-87
2023/08/17 03:26:55;;;;;;;4.10;2.15;;;;;;;19.44;88.56;98980.97;5010869;28;20037;-88
2023/08/17 03:29:20;;;;;;;2.45;2.25;;;;;;;19.74;86.91;98983.06;4995351;28;20041;-87
2023/08/17 03:31:46;;;;;;;5.25;2.08;;;;;;;19.91;86.12;98976.97;4995498;28;20025;-88
2023/08/17 03:34:11;;;;;;;8.35;3.35;;;;;;;19.28;89.08;98979.66;5012179;28;20120;-87
2023/08/17 03:36:36;;;;;;;4.88;3.42;;;;;;;18.80;92.88;98981.97;5010882;28;20021;-87
2023/08/17 03:39:02;;;;;;;2.40;2.03;;;;;;;18.76;92.28;98966.63;5009022;28;20026;-88
2023/08/17 03:41:27;;;;;;;2.72;2.33;;;;;;;19.42;88.38;98988.59;5012115;28;21146;-87
2023/08/17 03:43:52;;;;;;;2.78;2.33;;;;;;;19.49;87.62;98980.06;5028268;28;20069;-87
2023/08/17 03:46:18;;;;;;;4.32;2.35;;;;;;;18.90;90.65;98973.63;4990550;28;20034;-88
2023/08/17 03:48:43;;;;;;;3.08;2.67;;;;;;;18.86;92.14;98983.47;5025403;28;20034;-88
2023/08/17 03:51:09;;;;;;;2.75;2.13;;;;;;;19.32;89.13;98986.06;5042647;28;20040;-88
2023/08/17 03:53:34;;;;;;;2.13;1.92;;;;;;;19.44;88.18;99008.84;5007050;28;20026;-88
2023/08/17 03:55:59;;;;;;;7.47;2.88;;;;;;;18.84;89.07;98947.00;5026179;28;20049;-87
2023/08/17 03:58:26;;;;;;;6.40;2.97;;;;;;;18.89;91.13;99003.69;5013955;28;20388;-87
2023/08/17 04:00:52;;;;;;;3.78;3.38;;;;;;;18.41;93.76;99006.63;5013725;28;20057;-87
2023/08/17 04:03:19;;;;;;;5.75;4.15;;;;;;;18.30;95.55;99018.75;5027208;28;20057;-87
2023/08/17 04:05:45;;;;;;;2.95;2.40;;;;;;;18.31;95.95;99014.13;5030831;28;20022;-88
2023/08/17 04:08:10;;;;;;;5.30;3.38;;;;;;;18.25;95.40;99002.59;5028347;28;20040;-87
2023/08/17 04:10:36;;;;;;;7.82;3.25;;;;;;;18.31;96.36;99017.63;5016813;28;20061;-87
2023/08/17 04:13:01;;;;;;;5.35;3.03;;;;;;;18.30;97.14;99029.53;5032039;28;20060;-87
2023/08/17 04:15:26;;;;;;;4.18;3.60;;;;;;;18.32;96.93;99035.47;5029743;28;20160;-87
2023/08/17 04:17:52;;;;;;;4.38;3.53;;;;;;;17.96;96.40;98978.44;5034841;28;20029;-88
2023/08/17 04:20:18;;;;;;;3.75;3.28;;;;;;;18.38;96.71;99033.47;5033003;28;20064;-87
2023/08/17 04:22:44;;;;;;;10.77;6.80;;;;;;;17.85;98.81;99024.78;5030005;28;20124;-87
2023/08/17 04:25:09;;;;;;;7.95;6.47;;;;;;;17.82;99.77;99025.38;5012743;28;20143;-86
2023/08/17 04:27:35;;;;;;;10.00;6.05;;;;;;;17.90;99.74;99039.03;5010368;28;20037;-86
2023/08/17 04:30:00;;;;;;;8.38;5.47;;;;;;;18.13;98.15;99045.44;5037626;28;20032;-87
2023/08/17 04:32:26;;;;;;;8.52;6.90;;;;;;;18.08;98.17;99052.84;5015661;28;20432;-86
2023/08/17 04:34:51;;;;;;;12.52;7.60;;;;;;;18.28;97.20;99050.63;5030574;28;20383;-87
2023/08/17 04:37:17;;;;;;;14.82;7.65;;;;;;;18.34;95.59;99044.06;5036318;28;22042;-88
2023/08/17 04:39:43;;;;;;;11.40;8.45;;;;;;;18.00;98.46;99053.50;5032013;28;20026;-88
2023/08/17 04:42:09;;;;;;;13.35;10.77;;;;;;;17.80;98.75;99031.06;5014999;28;20136;-88
2023/08/17 04:44:34;;;;;;;12.05;10.13;;;;;;;18.07;98.27;99040.41;5009636;28;20128;-87
2023/08/17 04:47:00;;;;;;;5.45;4.40;;;;;;;18.41;95.49;99035.59;5024301;28;20736;-87
2023/08/17 04:49:26;;;;;;;11.32;9.50;;;;;;;18.36;95.05;99033.78;4993569;28;20025;-87
2023/08/17 04:51:52;;;;;;;17.85;11.35;;;;;;;18.13;96.95;99042.75;5025966;28;20141;-86
2023/08/17 04:54:17;;;;;;;15.35;11.55;;;;;;;18.13;98.20;99047.38;5023880;28;20064;-87
2023/08/17 04:56:43;;;;;;;13.63;11.68;;;;;;;17.89;98.70;99015.81;5024827;28;20560;-87
2023/08/17 04:59:08;;;;;;;10.93;9.85;;;;;;;17.96;98.76;99012.75;5003576;28;20047;-87
2023/08/17 05:01:34;;;;;;;13.55;10.27;;;;;;;18.14;97.63;99021.94;5024265;28;20064;-87
2023/08/17 05:03:59;;;;;;;12.68;10.15;;;;;;;18.05;97.85;99019.09;5027364;28;20045;-87
2023/08/17 05:06:27;;;;;;;16.13;12.07;;;;;;;18.02;98.10;99025.09;5014424;28;20075;-87
2023/08/17 05:08:52;;;;;;;16.77;12.15;;;;;;;18.07;98.35;99037.72;5009296;28;20404;-87
2023/08/17 05:11:18;;;;;;;16.40;12.25;;;;;;;17.81;99.17;99029.16;5019105;28;20034;-86
2023/08/17 05:13:43;;;;;;;15.40;12.52;;;;;;;17.55;100.00;99017.09;5001660;28;20116;-86
2023/08/17 05:16:09;;;;;;;17.60;12.20;;;;;;;17.72;100.00;99042.53;4998531;28;20029;-86
2023/08/17 05:18:34;;;;;;;16.25;12.55;;;;;;;17.77;100.00;99047.06;5026460;28;20030;-86
2023/08/17 05:21:00;;;;;;;18.08;11.98;;;;;;;17.57;100.00;99037.31;5030464;28;20060;-87
2023/08/17 05:23:25;;;;;;;16.60;10.65;;;;;;;17.69;100.00;99036.91;5034889;28;20049;-86
2023/08/17 05:25:51;;;;;;;14.95;11.07;;;;;;;17.77;100.00;99037.06;5028793;28;20129;-86
2023/08/17 05:28:16;;;;;;;8.57;6.35;;;;;;;17.95;100.00;99028.16;5013389;28;20029;-87
2023/08/17 05:30:41;;;;;;;10.45;9.38;;;;;;;18.00;97.76;99013.00;5029758;28;20488;-86
2023/08/17 05:33:07;;;;;;;11.32;9.95;;;;;;;18.25;96.99;99037.72;5016167;28;20030;-86
2023/08/17 05:35:32;;;;;;;12.32;7.07;;;;;;;18.20;97.56;99036.97;5028964;28;20033;-86
2023/08/17 05:37:58;;;;;;;16.35;10.85;;;;;;;17.86;98.61;99005.63;5035530;28;20038;-86
2023/08/17 05:40:23;;;;;;;19.10;10.93;;;;;;;18.05;98.72;99029.91;5015109;28;20116;-87
2023/08/17 05:42:48;;;;;;;14.43;10.90;;;;;;;17.94;99.28;99018.47;5025883;28;20489;-87
2023/08/17 05:45:14;;;;;;;17.50;11.43;;;;;;;18.21;99.61;99050.22;5000199;28;20397;-86
2023/08/17 05:47:39;;;;;;;17.42;11.38;;;;;;;18.07;99.60;99035.00;5028679;28;20448;-87
2023/08/17 05:50:05;;;;;;;13.90;11.65;;;;;;;17.92;99.78;99019.84;5028318;28;20033;-86
2023/08/17 05:52:31;;;;;;;10.80;6.22;;;;;;;18.26;98.39;99033.91;5040160;28;20033;-85
2023/08/17 05:54:56;;;;;;;10.68;7.95;;;;;;;18.52;96.72;99051.38;5028667;28;20033;-86
2023/08/17 05:57:22;;;;;;;7.25;6.00;;;;;;;18.46;96.27;99041.75;5036878;28;20029;-86
2023/08/17 05:59:48;;;;;;;6.63;3.58;;;;;;;18.98;93.05;99040.56;5030903;28;20038;-85
2023/08/17 06:02:13;;;;;;;3.97;3.13;;;;;;;18.94;93.07;99047.69;5017797;28;20089;-86
2023/08/17 06:04:38;;;;;;;5.32;3.85;;;;;;;19.10;91.78;99032.78;5034651;28;20041;-86
2023/08/17 06:07:04;;;;;;;3.05;2.40;;;;;;;19.01;92.38;99025.66;5037084;28;20079;-85
2023/08/17 06:09:29;;;;;;;2.65;2.10;;;;;;;19.49;90.07;99048.56;5035477;28;20040;-85
2023/08/17 06:11:54;;;;;;;2.47;2.20;;;;;;;19.49;89.98;99045.84;5042323;28;20038;-86
2023/08/17 06:14:20;;;;;;;3.30;2.05;;;;;;;19.43;89.58;99041.66;5036219;28;20034;-86
2023/08/17 06:16:45;;;;;;;6.40;2.38;;;;;;;19.38;90.46;99060.69;5027689;28;20105;-86
2023/08/17 06:19:10;;;;;;;2.85;1.80;;;;;;;19.34;91.05;99046.13;5032070;28;20044;-85
2023/08/17 06:21:36;;;;;;;2.33;2.00;;;;;;;19.54;89.22;99031.41;5014728;28;20021;-86
2023/08/17 06:24:01;;;;;;;4.68;1.65;;;;;;;19.61;89.72;99050.78;5031430;28;20068;-85
2023/08/17 06:26:27;;;;;;;2.55;1.60;;;;;;;19.98;87.65;99061.34;5034380;28;20100;-85
2023/08/17 06:28:52;;;;;;;1.70;1.60;;;;;;;19.88;88.04;99048.81;5044045;28;20037;-85
2023/08/17 06:31:17;;;;;;;3.45;1.80;;;;;;;20.06;87.61;99063.34;5040016;28;20037;-85
2023/08/17 06:33:43;;;;;;;3.17;1.48;;;;;;;19.99;87.50;99061.03;5018464;28;20033;-85
2023/08/17 06:36:08;;;;;;;1.83;1.38;;;;;;;19.87;88.25;99062.69;5030865;28;20022;-85
2023/08/17 06:38:33;;;;;;;4.15;1.65;;;;;;;19.59;90.83;99044.84;5047570;28;20076;-86
2023/08/17 06:40:59;;;;;;;4.13;2.25;;;;;;;19.28;93.98;99045.44;4999923;28;20028;-86
2023/08/17 06:43:24;;;;;;;2.47;1.50;;;;;;;19.77;89.64;99065.59;5033825;28;20037;-85
2023/08/17 06:45:50;;;;;;;2.03;1.23;;;;;;;19.92;88.30;99054.47;5030783;28;20442;-86
2023/08/17 06:48:15;;;;;;;2.85;1.50;;;;;;;19.71;88.78;99037.81;5034703;28;20456;-85
2023/08/17 06:50:40;;;;;;;6.30;1.48;;;;;;;20.19;87.54;99066.03;5015805;28;20044;-86
2023/08/17 06:53:06;;;;;;;1.55;1.45;;;;;;;20.09;87.54;99055.38;5039254;28;20033;-85
2023/08/17 06:55:31;;;;;;;4.10;1.77;;;;;;;20.19;87.40;99065.22;5016425;28;20056;-86
2023/08/17 06:57:57;;;;;;;1.67;1.58;;;;;;;20.13;87.44;99045.56;5014776;28;20033;-86
2023/08/17 07:00:22;;;;;;;3.58;1.17;;;;;;;20.27;87.38;99069.94;5032089;28;20052;-86
2023/08/17 07:02:48;;;;;;;1.98;1.63;;;;;;;20.34;86.94;99069.50;5031926;28;20090;-85
2023/08/17 07:05:15;;;;;;;2.95;1.50;;;;;;;20.34;86.43;99061.38;5040302;28;20116;-86
2023/08/17 07:07:40;;;;;;;1.30;1.10;;;;;;;20.41;86.56;99070.69;5029302;28;20028;-85
2023/08/17 07:10:07;;;;;;;1.92;1.30;;;;;;;20.40;86.02;99060.94;5037169;28;20554;-85
2023/08/17 07:12:32;;;;;;;1.50;1.00;;;;;;;20.33;86.21;99060.59;5036036;28;20671;-85
2023/08/17 07:14:58;;;;;;;1.55;1.13;;;;;;;19.95;88.41;99065.47;5017036;28;20067;-85
2023/08/17 07:17:23;;;;;;;2.08;1.80;;;;;;;20.47;86.06;99074.06;5016509;28;20030;-86
2023/08/17 07:19:49;;;;;;;1.98;1.27;;;;;;;20.50;85.72;99060.72;5018290;28;20336;-85
2023/08/17 07:22:16;;;;;;;5.10;1.52;;;;;;;20.51;85.89;99061.53;5045577;28;20120;-86
2023/08/17 07:24:41;;;;;;;1.42;1.17;;;;;;;20.51;85.83;99056.09;5033470;28;20029;-86
2023/08/17 07:27:07;;;;;;;2.67;1.27;;;;;;;20.38;87.43;99071.31;5018566;28;20090;-85
2023/08/17 07:29:32;;;;;;;2.42;1.63;;;;;;;20.19;89.16;99081.47;5032225;28;20091;-85
2023/08/17 07:32:01;;;;;;;1.40;1.30;;;;;;;20.61;85.62;99067.50;5027664;28;20566;-85
2023/08/17 07:34:26;;;;;;;1.73;1.20;;;;;;;20.74;85.29;99077.50;5016967;28;20075;-86
2023/08/17 07:36:52;;;;;;;5.38;1.50;;;;;;;20.51;86.26;99070.44;5013378;28;20026;-85
2023/08/17 07:39:18;;;;;;;1.95;1.25;;;;;;;20.63;84.62;99062.56;5006463;28;20533;-85
2023/08/17 07:41:43;;;;;;;1.23;1.13;;;;;;;20.82;84.38;99071.31;5028287;28;20064;-85
2023/08/17 07:44:09;;;;;;;1.38;1.27;;;;;;;20.76;85.63;99088.03;5016635;28;20029;-85
2023/08/17 07:46:34;;;;;;;4.07;1.58;;;;;;;20.82;84.82;99084.88;5028309;28;20026;-85
2023/08/17 07:48:59;;;;;;;1.23;1.00;;;;;;;21.09;84.46;99086.69;5021773;28;20035;-85
2023/08/17 07:51:25;;;;;;;1.85;1.55;;;;;;;20.90;85.53;99075.97;5034595;28;20037;-86
2023/08/17 07:53:50;;;;;;;1.77;1.40;;;;;;;20.84;86.17;99079.13;5023123;28;20481;-85
2023/08/17 07:56:15;;;;;;;1.50;1.40;;;;;;;20.90;83.97;99070.56;5019247;28;20706;-85
2023/08/17 07:58:41;;;;;;;1.30;1.02;;;;;;;21.20;83.24;99084.50;5041144;28;20102;-86
2023/08/17 08:01:06;;;;;;;0.98;0.98;;;;;;;21.39;82.42;99093.19;5033469;28;20025;-86
2023/08/17 08:03:32;;;;;;;3.70;1.40;;;;;;;21.12;83.50;99085.25;5037667;28;20033;-85
2023/08/17 08:05:57;;;;;;;1.70;1.02;;;;;;;21.05;84.08;99085.69;5022804;28;20488;-86
2023/08/17 08:08:23;;;;;;;3.63;1.70;;;;;;;21.05;84.01;99088.41;5035819;28;20068;-85
2023/08/17 08:10:48;;;;;;;1.35;1.25;;;;;;;20.48;84.86;99072.97;5016503;28;20039;-84
2023/08/17 08:13:14;;;;;;;1.20;1.10;;;;;;;21.01;84.34;99094.75;5033891;28;20033;-85
2023/08/17 08:15:39;;;;;;;1.95;1.02;;;;;;;20.98;83.57;99079.88;5034882;28;20128;-85
2023/08/17 08:18:05;;;;;;;3.47;1.55;;;;;;;21.11;83.56;99097.22;5031594;28;20076;-85
2023/08/17 08:20:30;;;;;;;4.72;1.13;;;;;;;21.14;82.58;99089.28;5029164;28;20568;-84
2023/08/17 08:22:55;;;;;;;1.02;1.02;;;;;;;21.04;83.96;99102.28;5023082;28;20026;-84
2023/08/17 08:25:21;;;;;;;2.20;1.35;;;;;;;21.42;81.71;99098.84;5041380;28;20038;-85
2023/08/17 08:27:46;;;;;;;1.10;1.00;;;;;;;21.25;82.46;99081.66;5028510;28;20025;-85
2023/08/17 08:30:12;;;;;;;2.28;1.65;;;;;;;21.00;83.74;99087.69;5031781;28;20109;-85
2023/08/17 08:32:37;;;;;;;3.60;1.52;;;;;;;20.90;83.66;99097.69;5024617;28;20033;-85
2023/08/17 08:35:03;;;;;;;1.02;0.93;;;;;;;21.16;83.35;99099.81;5045423;28;20052;-85
2023/08/17 08:37:28;;;;;;;1.27;1.17;;;;;;;21.26;82.81;99094.09;5028198;28;20106;-85
2023/08/17 08:39:55;;;;;;;1.85;1.27;;;;;;;21.31;82.87;99092.06;5031200;28;20029;-85
2023/08/17 08:42:21;;;;;;;1.63;1.50;;;;;;;21.39;82.81;99094.00;5031966;28;20088;-85
2023/08/17 08:44:47;;;;;;;1.33;1.17;;;;;;;21.44;82.47;99091.16;5035760;28;20443;-85
2023/08/17 08:47:13;;;;;;;3.20;1.20;;;;;;;21.21;83.29;99080.69;5034631;28;20447;-85
2023/08/17 08:49:40;;;;;;;1.95;1.27;;;;;;;21.37;84.30;99096.25;5031284;28;20030;-85
2023/08/17 08:52:16;;;;;;;3.55;1.67;;;;;;;21.36;82.97;99094.63;5031657;28;20122;-85
2023/08/17 08:54:44;;;;;;;10.15;1.85;;;;;;;21.53;82.88;99099.34;5031612;28;20021;-85
2023/08/17 08:57:14;;;;;;;2.45;1.30;;;;;;;21.55;81.68;99080.81;5026087;28;20032;-84
2023/08/17 08:59:44;;;;;;;3.92;1.73;;;;;;;21.40;83.50;99084.75;5038664;28;20030;-85
2023/08/17 09:02:15;;;;;;;1.50;1.40;;;;;;;21.72;81.77;99078.16;5026225;28;20568;-84
2023/08/17 09:04:44;;;;;;;6.95;1.80;;;;;;;21.72;81.29;99061.03;5046304;28;20740;-85
2023/08/17 09:07:11;;;;;;;6.65;2.13;;;;;;;21.92;81.38;99088.47;5033637;28;20025;-85
2023/08/17 09:09:37;;;;;;;12.48;3.03;;;;;;;21.92;80.62;99065.91;5021163;28;20025;-84
2023/08/17 09:12:04;;;;;;;18.65;3.08;;;;;;;22.04;80.94;99082.44;5028655;28;20108;-85
2023/08/17 09:14:29;;;;;;;8.68;2.05;;;;;;;21.98;81.33;99064.66;5047167;28;20025;-85
2023/08/17 09:16:58;;;;;;;12.70;2.80;;;;;;;22.14;80.31;99072.03;5037658;28;20075;-85
2023/08/17 09:19:24;;;;;;;5.30;2.70;;;;;;;22.11;80.39;99083.53;5042277;28;20029;-85
2023/08/17 09:21:50;;;;;;;7.18;2.83;;;;;;;22.35;79.73;99066.75;5019233;28;20032;-85
2023/08/17 09:24:15;;;;;;;8.35;2.28;;;;;;;22.39;79.44;99082.13;5035981;28;20095;-84
2023/08/17 09:26:40;;;;;;;3.28;2.33;;;;;;;22.41;78.78;99076.34;5009285;28;20026;-84
2023/08/17 09:29:20;;;;;;;7.00;2.90;;;;;;;22.23;79.33;99064.69;5024111;28;20444;-84
2023/08/17 09:31:46;;;;;;;2.70;2.45;;;;;;;22.28;79.85;99059.06;5019384;28;20503;-85
2023/08/17 09:34:14;;;;;;;6.05;2.90;;;;;;;22.36;79.22;99065.66;5031448;28;20025;-85
2023/08/17 09:36:39;;;;;;;7.25;2.35;;;;;;;22.36;78.93;99061.03;5022641;28;20040;-85
2023/08/17 09:39:05;;;;;;;4.82;2.45;;;;;;;22.34;79.84;99062.44;5040114;28;20017;-85
2023/08/17 09:41:37;;;;;;;12.93;2.42;;;;;;;22.59;78.27;99069.81;5046022;28;20121;-85
2023/08/17 09:44:03;;;;;;;8.35;3.83;;;;;;;22.36;79.04;99055.59;5026692;28;20033;-84
2023/08/17 09:46:29;;;;;;;3.00;2.70;;;;;;;22.54;79.11;99074.63;5013908;28;20064;-85
2023/08/17 09:48:55;;;;;;;16.52;3.35;;;;;;;22.70;77.88;99062.94;5027039;28;20060;-85
2023/08/17 09:51:20;;;;;;;3.97;2.60;;;;;;;22.72;78.08;99071.56;5030710;28;20025;-85
2023/08/17 09:53:52;;;;;;;10.23;3.03;;;;;;;22.68;77.81;99059.72;5034553;28;20048;-85
2023/08/17 09:56:21;;;;;;;2.92;2.72;;;;;;;22.73;78.11;99075.09;5034556;28;20047;-84
2023/08/17 09:58:47;;;;;;;5.85;2.67;;;;;;;22.75;78.50;99070.94;5031401;28;20396;-85
2023/08/17 10:01:13;;;;;;;8.63;2.92;;;;;;;22.79;77.15;99054.75;5038350;28;20082;-84
2023/08/17 10:03:44;;;;;;;6.47;2.78;;;;;;;22.78;77.61;99053.94;5043498;28;20052;-84
2023/08/17 10:06:13;;;;;;;3.20;2.40;;;;;;;23.01;77.55;99068.16;5035964;28;20032;-84
2023/08/17 10:08:51;;;;;;;2.90;2.65;;;;;;;23.15;77.90;99059.78;5035068;28;20036;-85
2023/08/17 10:11:19;;;;;;;8.25;3.17;;;;;;;23.38;76.59;99061.97;5005081;28;20025;-85
2023/08/17 10:14:08;;;;;;;6.57;3.65;;;;;;;23.27;76.09;99068.88;5030861;28;20036;-85
2023/08/17 10:16:45;;;;;;;3.90;2.42;;;;;;;23.27;75.99;99057.97;5037356;28;20621;-85
2023/08/17 10:19:19;;;;;;;6.85;2.65;;;;;;;23.36;75.25;99052.53;5037993;28;20473;-85
2023/08/17 10:21:50;;;;;;;9.38;3.00;;;;;;;23.62;74.92;99055.94;5039083;28;20553;-85
2023/08/17 10:24:17;;;;;;;8.77;2.50;;;;;;;23.52;74.82;99051.66;5032298;28;20552;-86
2023/08/17 10:26:44;;;;;;;5.70;2.63;;;;;;;23.50;75.13;99064.78;5023580;28;20589;-86
2023/08/17 10:29:10;;;;;;;3.63;2.42;;;;;;;23.48;74.55;99058.88;5032013;28;20061;-84
2023/08/17 10:31:37;;;;;;;8.10;2.67;;;;;;;23.46;74.71;99058.41;5033937;28;20069;-85
2023/08/17 10:34:03;;;;;;;2.50;2.30;;;;;;;23.44;76.92;99059.84;5042258;28;20100;-85
2023/08/17 10:36:33;;;;;;;7.75;3.17;;;;;;;23.32;75.33;99044.19;5030271;28;20076;-85
2023/08/17 10:39:25;;;;;;;2.30;2.20;;;;;;;23.50;73.78;99044.94;5039348;28;20037;-85
2023/08/17 10:41:52;;;;;;;3.17;2.20;;;;;;;23.55;74.36;99059.16;5011401;28;20045;-86
2023/08/17 10:44:37;;;;;;;4.85;2.55;;;;;;;23.52;74.42;99057.13;5039479;28;20033;-85
2023/08/17 10:47:22;;;;;;;7.70;2.40;;;;;;;23.65;74.63;99058.81;5034914;28;20424;-85
2023/08/17 10:49:55;;;;;;;13.77;3.40;;;;;;;23.42;74.75;99052.03;5037481;28;20060;-85
2023/08/17 10:52:26;;;;;;;8.93;2.78;;;;;;;23.58;74.69;99063.16;5017487;28;20497;-85
2023/08/17 10:54:53;;;;;;;5.05;2.20;;;;;;;23.45;74.46;99056.81;5028139;28;20393;-85
2023/08/17 10:57:25;;;;;;;4.03;2.20;;;;;;;23.37;74.31;99065.81;5034642;28;20092;-85
2023/08/17 11:00:17;;;;;;;3.53;2.00;;;;;;;23.47;73.82;99060.03;5022673;28;20064;-85
2023/08/17 11:02:53;;;;;;;3.00;2.10;;;;;;;23.43;73.93;99064.53;5019290;28;20037;-85
2023/08/17 11:05:53;;;;;;;2.45;1.90;;;;;;;23.48;73.51;99066.28;5017747;28;20033;-85
2023/08/17 11:08:31;;;;;;;2.88;2.05;;;;;;;23.34;74.24;99066.47;5037977;28;20041;-85
2023/08/17 11:11:04;;;;;;;1.90;1.80;;;;;;;23.38;73.51;99051.09;5031135;28;20033;-85
2023/08/17 11:13:35;;;;;;;2.63;2.08;;;;;;;23.61;75.79;99054.34;5030083;28;20112;-84
2023/08/17 11:16:02;;;;;;;3.88;1.98;;;;;;;23.76;72.81;99062.75;5031209;28;20029;-85
2023/08/17 11:18:27;;;;;;;7.78;3.05;;;;;;;23.85;72.11;99055.31;5005651;28;20048;-85
2023/08/17 11:20:54;;;;;;;10.75;2.65;;;;;;;23.74;72.45;99045.91;5037085;28;20538;-85
2023/08/17 11:23:20;;;;;;;6.28;2.35;;;;;;;23.74;72.30;99043.19;5033748;28;20053;-85
2023/08/17 11:25:46;;;;;;;3.78;2.22;;;;;;;23.76;72.52;99046.38;5015586;28;20051;-85
2023/08/17 11:28:14;;;;;;;2.80;2.00;;;;;;;24.05;71.62;99048.31;4993515;28;20505;-85